Airfield :
LOGIN :

Register | Disclaimer

   EN    FR    IT 

 










Legend :    VFR   Marginal VFR   IFR   Intensive IFR   Very Intensive IFR
Visi :
Ceiling :
>= 8 km
>= 3000ft
5 to 8 km
1000 to 3000 ft
1500m to 5 km
500 to 1000 ft
800 to 1500m
200 to 500 ft
< 800m
< 200 ft
Symbols :   Thunderstorms  Fog  Heavy snow  Heavy precipitations  Wind > 20 kt
SIGMETs :     Misc.  Thunderstorms  Icing  Turbulence  Mountain Waves  Volcanic Ashes






- Airport Elevation : 33 ft
- IATA code : MHZ


EGUN - RAF Mildenhall

CURRENT METAR :
  • 131012Z 28013KT 9999 SCT026 BKN034 06/06 A2885 RMK SLPNO WND DATA ESTMD ALSTG ESTMD RVRNO $

EXPIRED METARs :
  • 130856Z AUTO 27012KT 9999 BKN030 OVC037 06/06 A2882 RMK AO2 SLP763 6//// T00570057 .
  • 130846Z AUTO 27012KT 9999 BKN031 06/06 A2882 RMK AO2 SLP763 $
  • 130841Z AUTO 27013KT 9999 BKN029 BKN037 OVC045 06/06 A2881 RMK AO2 CIG 029V039 BKN029 V SCT SLP759 $
  • 130756Z AUTO 28010KT 9999 FEW019 OVC032 05/05 A2878 RMK AO2 RAE33 SLP749 P0000 T00540054 .

TAF AMD TAF EGUN
Valid from the 13 at 09:00 until the 14 at 10:00 UTC


130923Z 1309/1410 27015G25KT 9000 -SHRA BKN020 QNH2882INS
BECMG 1309/1310 27015G25KT 9999 NSW BKN025 QNH2885INS
BECMG 1319/1320 24010G20KT 9999 BKN025 QNH2908INS
BECMG 1403/1404 25015G25KT 9999 BKN025 QNH2912INS TX07/1314Z TN03/1403Z



MET'MAP, your aeronautical weather chart ! - Copyright ORBIFLY December 2007 - Disclaimer

ORBIFLY MET'MAP TEAM :

Programming & Development : Alexandra Zaïnal
Concept & original design : Baudouin d'Aumeries
Assistance for programming : Marc-Olivier Méhu
Technical & hardware support : Manuel Goepfert

Contact : metmap@orbifly.com




SOURCES & CREDITS :

   NOAA